Time,TemperatureF,DewpointF,PressureIn,WindDirection,WindDirectionDegrees,WindSpeedMPH,WindSpeedGustMPH,Humidity,HourlyPrecipIn,Conditions,Clouds,dailyrainin,SoftwareType,DateUTC
2013-02-08 00:00:00,34.4,30.1,30.20,North,0,6.0,13.0,84,0.00,,,0.00,VWS V14.00,2013-02-08 06:00:00,
2013-02-08 00:05:00,34.3,30.0,30.20,North,0,5.0,13.0,84,0.00,,,0.00,VWS V14.00,2013-02-08 06:05:00,
2013-02-08 00:10:00,34.3,30.0,30.20,North,0,4.0,9.0,84,0.00,,,0.00,VWS V14.00,2013-02-08 06:10:00,
2013-02-08 00:15:00,34.3,30.3,30.21,NW,315,3.0,7.0,85,0.00,,,0.00,VWS V14.00,2013-02-08 06:15:00,
2013-02-08 00:20:00,34.3,30.3,30.21,NNW,338,4.0,12.0,85,0.00,,,0.00,VWS V14.00,2013-02-08 06:20:00,
2013-02-08 00:25:00,34.2,30.2,30.20,NW,315,7.0,14.0,85,0.00,,,0.00,VWS V14.00,2013-02-08 06:25:00,
2013-02-08 00:30:00,34.2,30.2,30.20,NW,315,6.0,14.0,85,0.00,,,0.00,VWS V14.00,2013-02-08 06:30:00,
2013-02-08 00:35:00,34.1,30.1,30.21,NNW,338,6.0,13.0,85,0.00,,,0.00,VWS V14.00,2013-02-08 06:35:00,
2013-02-08 00:40:00,34.0,30.0,30.21,NW,315,6.0,12.0,85,0.00,,,0.00,VWS V14.00,2013-02-08 06:40:00,
2013-02-08 00:45:00,33.9,29.6,30.21,NNW,338,6.0,13.0,84,0.00,,,0.00,VWS V14.00,2013-02-08 06:45:00,
2013-02-08 00:50:00,33.9,29.9,30.21,North,0,8.0,17.0,85,0.00,,,0.00,VWS V14.00,2013-02-08 06:50:00,
2013-02-08 00:55:00,33.8,29.5,30.21,NNW,338,10.0,17.0,84,0.00,,,0.00,VWS V14.00,2013-02-08 06:55:00,
2013-02-08 01:00:00,33.8,29.5,30.21,NNW,338,9.0,16.0,84,0.00,,,0.00,VWS V14.00,2013-02-08 07:00:00,
2013-02-08 01:05:00,33.8,29.5,30.21,NNW,338,6.0,11.0,84,0.00,,,0.00,VWS V14.00,2013-02-08 07:05:00,
2013-02-08 01:10:00,33.7,29.4,30.22,NNW,338,7.0,12.0,84,0.00,,,0.00,VWS V14.00,2013-02-08 07:10:00,
2013-02-08 01:15:00,33.7,29.4,30.22,NNW,338,5.0,14.0,84,0.00,,,0.00,VWS V14.00,2013-02-08 07:15:00,
2013-02-08 01:20:00,33.7,29.7,30.21,NNW,338,7.0,14.0,85,0.00,,,0.00,VWS V14.00,2013-02-08 07:20:00,
2013-02-08 01:25:00,33.6,29.3,30.22,NNW,338,8.0,18.0,84,0.00,,,0.00,VWS V14.00,2013-02-08 07:25:00,
2013-02-08 01:30:00,33.6,29.0,30.22,North,0,7.0,18.0,83,0.00,,,0.00,VWS V14.00,2013-02-08 07:30:00,
2013-02-08 01:35:00,33.6,29.0,30.22,North,0,6.0,15.0,83,0.00,,,0.00,VWS V14.00,2013-02-08 07:35:00,
2013-02-08 01:40:00,33.6,29.3,30.23,NNW,338,5.0,11.0,84,0.00,,,0.00,VWS V14.00,2013-02-08 07:40:00,
2013-02-08 01:45:00,33.6,29.3,30.23,NNW,338,4.0,9.0,84,0.00,,,0.00,VWS V14.00,2013-02-08 07:45:00,
2013-02-08 01:50:00,33.6,29.6,30.23,NNW,338,5.0,10.0,85,0.00,,,0.00,VWS V14.00,2013-02-08 07:50:00,
2013-02-08 01:55:00,33.6,29.6,30.23,NW,315,7.0,12.0,85,0.00,,,0.00,VWS V14.00,2013-02-08 07:55:00,
2013-02-08 02:00:00,33.5,29.5,30.23,NW,315,6.0,11.0,85,0.00,,,0.00,VWS V14.00,2013-02-08 08:00:00,
2013-02-08 02:05:00,33.6,29.6,30.23,NNW,338,5.0,11.0,85,0.00,,,0.00,VWS V14.00,2013-02-08 08:05:00,
2013-02-08 02:10:00,33.5,29.5,30.23,NW,315,6.0,9.0,85,0.00,,,0.00,VWS V14.00,2013-02-08 08:10:00,
2013-02-08 02:15:00,33.5,29.2,30.23,NW,315,7.0,15.0,84,0.00,,,0.00,VWS V14.00,2013-02-08 08:15:00,
2013-02-08 02:20:00,33.4,28.8,30.23,North,0,6.0,12.0,83,0.00,,,0.00,VWS V14.00,2013-02-08 08:20:00,
2013-02-08 02:25:00,33.0,28.4,30.24,WNW,292,5.0,8.0,83,0.00,,,0.00,VWS V14.00,2013-02-08 08:25:00,
2013-02-08 02:30:00,32.7,28.4,30.24,NW,315,8.0,12.0,84,0.00,,,0.00,VWS V14.00,2013-02-08 08:30:00,
2013-02-08 02:35:00,32.5,28.2,30.24,NW,315,6.0,10.0,84,0.01,,,0.01,VWS V14.00,2013-02-08 08:35:00,
2013-02-08 02:40:00,32.2,28.2,30.24,NW,315,6.0,10.0,85,0.01,,,0.01,VWS V14.00,2013-02-08 08:40:00,
2013-02-08 02:45:00,32.0,28.0,30.24,NW,315,7.0,14.0,85,0.01,,,0.01,VWS V14.00,2013-02-08 08:45:00,
2013-02-08 02:50:00,31.8,27.8,30.24,NW,315,5.0,10.0,85,0.01,,,0.01,VWS V14.00,2013-02-08 08:50:00,
2013-02-08 02:55:00,31.6,27.6,30.24,NW,315,5.0,9.0,85,0.01,,,0.01,VWS V14.00,2013-02-08 08:55:00,
2013-02-08 03:00:00,31.4,27.4,30.25,NW,315,6.0,10.0,85,0.01,,,0.01,VWS V14.00,2013-02-08 09:00:00,
2013-02-08 03:05:00,31.3,27.6,30.25,NW,315,6.0,11.0,86,0.01,,,0.01,VWS V14.00,2013-02-08 09:05:00,
2013-02-08 03:10:00,31.2,27.5,30.25,NW,315,6.0,11.0,86,0.01,,,0.01,VWS V14.00,2013-02-08 09:10:00,
2013-02-08 03:15:00,31.0,27.3,30.25,NW,315,6.0,10.0,86,0.01,,,0.01,VWS V14.00,2013-02-08 09:15:00,
2013-02-08 03:20:00,30.9,27.2,30.25,NW,315,5.0,11.0,86,0.01,,,0.01,VWS V14.00,2013-02-08 09:20:00,
2013-02-08 03:25:00,30.8,27.1,30.25,NW,315,5.0,9.0,86,0.01,,,0.01,VWS V14.00,2013-02-08 09:25:00,
2013-02-08 03:30:00,30.6,26.9,30.25,NW,315,5.0,9.0,86,0.01,,,0.01,VWS V14.00,2013-02-08 09:30:00,
2013-02-08 03:35:00,30.4,26.7,30.25,NW,315,4.0,8.0,86,0.01,,,0.01,VWS V14.00,2013-02-08 09:35:00,
2013-02-08 03:40:00,30.3,26.9,30.25,NW,315,3.0,6.0,87,0.00,,,0.01,VWS V14.00,2013-02-08 09:40:00,
2013-02-08 03:45:00,30.4,27.3,30.25,NW,315,4.0,9.0,88,0.00,,,0.01,VWS V14.00,2013-02-08 09:45:00,
2013-02-08 03:50:00,30.5,27.4,30.26,NW,315,3.0,6.0,88,0.00,,,0.01,VWS V14.00,2013-02-08 09:50:00,
2013-02-08 03:55:00,30.6,27.5,30.26,NW,315,5.0,8.0,88,0.00,,,0.01,VWS V14.00,2013-02-08 09:55:00,
2013-02-08 04:00:00,30.8,27.7,30.26,NW,315,3.0,7.0,88,0.00,,,0.01,VWS V14.00,2013-02-08 10:00:00,
2013-02-08 04:05:00,31.0,27.9,30.26,NW,315,4.0,7.0,88,0.00,,,0.01,VWS V14.00,2013-02-08 10:05:00,
2013-02-08 04:10:00,31.1,28.0,30.27,NW,315,3.0,7.0,88,0.00,,,0.01,VWS V14.00,2013-02-08 10:10:00,
2013-02-08 04:15:00,31.2,28.1,30.27,NW,315,3.0,6.0,88,0.00,,,0.01,VWS V14.00,2013-02-08 10:15:00,
2013-02-08 04:20:00,31.3,28.2,30.27,NW,315,5.0,10.0,88,0.00,,,0.01,VWS V14.00,2013-02-08 10:20:00,
2013-02-08 04:25:00,31.4,28.3,30.27,NNW,338,4.0,12.0,88,0.00,,,0.01,VWS V14.00,2013-02-08 10:25:00,
2013-02-08 04:30:00,31.5,28.1,30.27,NNW,338,6.0,9.0,87,0.00,,,0.01,VWS V14.00,2013-02-08 10:30:00,
2013-02-08 04:35:00,31.7,28.3,30.27,NW,315,4.0,9.0,87,0.00,,,0.01,VWS V14.00,2013-02-08 10:35:00,
2013-02-08 04:40:00,31.7,28.3,30.27,NW,315,4.0,7.0,87,0.00,,,0.01,VWS V14.00,2013-02-08 10:40:00,
2013-02-08 04:45:00,31.8,28.4,30.28,NW,315,5.0,15.0,87,0.00,,,0.01,VWS V14.00,2013-02-08 10:45:00,
2013-02-08 04:50:00,31.9,28.2,30.28,NNW,338,7.0,12.0,86,0.00,,,0.01,VWS V14.00,2013-02-08 10:50:00,
2013-02-08 04:55:00,32.0,28.3,30.28,NW,315,6.0,11.0,86,0.00,,,0.01,VWS V14.00,2013-02-08 10:55:00,
2013-02-08 05:00:00,32.1,28.4,30.29,NW,315,5.0,9.0,86,0.00,,,0.01,VWS V14.00,2013-02-08 11:00:00,
2013-02-08 05:05:00,32.1,28.4,30.29,NW,315,5.0,10.0,86,0.00,,,0.01,VWS V14.00,2013-02-08 11:05:00,
2013-02-08 05:10:00,32.1,28.4,30.29,NNW,338,5.0,9.0,86,0.00,,,0.01,VWS V14.00,2013-02-08 11:10:00,
2013-02-08 05:15:00,32.2,28.2,30.29,NNW,338,6.0,12.0,85,0.00,,,0.01,VWS V14.00,2013-02-08 11:15:00,
2013-02-08 05:20:00,32.2,28.5,30.30,NNW,338,5.0,11.0,86,0.00,,,0.01,VWS V14.00,2013-02-08 11:20:00,
2013-02-08 05:25:00,32.3,28.3,30.30,NW,315,5.0,11.0,85,0.00,,,0.01,VWS V14.00,2013-02-08 11:25:00,
2013-02-08 05:30:00,32.3,28.3,30.30,North,0,6.0,12.0,85,0.00,,,0.01,VWS V14.00,2013-02-08 11:30:00,
2013-02-08 05:35:00,32.3,28.3,30.30,NW,315,5.0,11.0,85,0.00,,,0.01,VWS V14.00,2013-02-08 11:35:00,
2013-02-08 05:40:00,32.3,28.3,30.30,NNW,338,6.0,12.0,85,0.00,,,0.01,VWS V14.00,2013-02-08 11:40:00,
2013-02-08 05:45:00,32.3,28.6,30.31,NNW,338,4.0,8.0,86,0.00,,,0.01,VWS V14.00,2013-02-08 11:45:00,
2013-02-08 05:50:00,32.3,28.3,30.31,NNW,338,5.0,10.0,85,0.00,,,0.01,VWS V14.00,2013-02-08 11:50:00,
2013-02-08 05:55:00,32.3,28.3,30.31,NNW,338,5.0,10.0,85,0.00,,,0.01,VWS V14.00,2013-02-08 11:55:00,
2013-02-08 06:00:00,32.3,28.3,30.31,NW,315,5.0,11.0,85,0.00,,,0.01,VWS V14.00,2013-02-08 12:00:00,
2013-02-08 06:05:00,32.3,28.6,30.31,NW,315,5.0,12.0,86,0.00,,,0.01,VWS V14.00,2013-02-08 12:05:00,
2013-02-08 06:10:00,32.3,28.6,30.31,NW,315,5.0,10.0,86,0.00,,,0.01,VWS V14.00,2013-02-08 12:10:00,
2013-02-08 06:15:00,32.3,28.6,30.32,NW,315,6.0,12.0,86,0.00,,,0.01,VWS V14.00,2013-02-08 12:15:00,
2013-02-08 06:20:00,32.2,28.5,30.32,NW,315,5.0,11.0,86,0.00,,,0.01,VWS V14.00,2013-02-08 12:20:00,
2013-02-08 06:25:00,32.2,28.5,30.32,NNW,338,3.0,8.0,86,0.00,,,0.01,VWS V14.00,2013-02-08 12:25:00,
2013-02-08 06:30:00,32.2,28.5,30.32,NNE,22,2.0,5.0,86,0.00,,,0.01,VWS V14.00,2013-02-08 12:30:00,
2013-02-08 06:35:00,32.1,28.4,30.32,NNW,338,4.0,9.0,86,0.00,,,0.01,VWS V14.00,2013-02-08 12:35:00,
2013-02-08 06:40:00,32.1,28.4,30.32,NNW,338,3.0,7.0,86,0.00,,,0.01,VWS V14.00,2013-02-08 12:40:00,
2013-02-08 06:45:00,32.1,28.4,30.32,NNW,338,1.0,4.0,86,0.00,,,0.01,VWS V14.00,2013-02-08 12:45:00,
2013-02-08 06:50:00,32.1,28.4,30.33,North,0,3.0,6.0,86,0.00,,,0.01,VWS V14.00,2013-02-08 12:50:00,
2013-02-08 06:55:00,32.0,28.3,30.33,North,0,3.0,8.0,86,0.00,,,0.01,VWS V14.00,2013-02-08 12:55:00,
2013-02-08 07:00:00,32.0,28.3,30.33,NNE,22,3.0,8.0,86,0.00,,,0.01,VWS V14.00,2013-02-08 13:00:00,
2013-02-08 07:05:00,32.0,28.3,30.33,NNE,22,3.0,7.0,86,0.00,,,0.01,VWS V14.00,2013-02-08 13:05:00,
2013-02-08 07:10:00,31.9,28.2,30.33,NNE,22,2.0,7.0,86,0.00,,,0.01,VWS V14.00,2013-02-08 13:10:00,
2013-02-08 07:15:00,31.9,28.2,30.33,NNE,22,2.0,6.0,86,0.00,,,0.01,VWS V14.00,2013-02-08 13:15:00,
2013-02-08 07:20:00,31.9,28.2,30.33,NNE,22,1.0,4.0,86,0.00,,,0.01,VWS V14.00,2013-02-08 13:20:00,
2013-02-08 07:25:00,31.8,28.1,30.33,NNE,22,1.0,5.0,86,0.00,,,0.01,VWS V14.00,2013-02-08 13:25:00,
2013-02-08 07:30:00,31.9,28.2,30.34,NNE,22,1.0,4.0,86,0.00,,,0.01,VWS V14.00,2013-02-08 13:30:00,
2013-02-08 07:35:00,31.8,28.1,30.34,North,0,2.0,5.0,86,0.00,,,0.01,VWS V14.00,2013-02-08 13:35:00,
2013-02-08 07:40:00,31.8,27.8,30.34,NNE,22,3.0,7.0,85,0.00,,,0.01,VWS V14.00,2013-02-08 13:40:00,
2013-02-08 07:45:00,31.8,28.1,30.34,North,0,3.0,6.0,86,0.00,,,0.01,VWS V14.00,2013-02-08 13:45:00,
2013-02-08 07:50:00,31.9,28.2,30.34,North,0,1.0,4.0,86,0.00,,,0.01,VWS V14.00,2013-02-08 13:50:00,
2013-02-08 07:55:00,31.9,28.2,30.34,North,0,1.0,4.0,86,0.00,,,0.01,VWS V14.00,2013-02-08 13:55:00,
2013-02-08 08:00:00,31.9,28.2,30.34,North,0,2.0,7.0,86,0.00,,,0.01,VWS V14.00,2013-02-08 14:00:00,
2013-02-08 08:05:00,31.9,27.9,30.34,NNE,22,3.0,7.0,85,0.00,,,0.01,VWS V14.00,2013-02-08 14:05:00,
2013-02-08 08:10:00,31.9,27.9,30.35,NE,45,1.0,4.0,85,0.00,,,0.01,VWS V14.00,2013-02-08 14:10:00,
2013-02-08 08:15:00,32.0,28.3,30.35,NNE,22,3.0,8.0,86,0.00,,,0.01,VWS V14.00,2013-02-08 14:15:00,
2013-02-08 08:20:00,32.0,28.0,30.35,North,0,3.0,6.0,85,0.00,,,0.01,VWS V14.00,2013-02-08 14:20:00,
2013-02-08 08:25:00,32.0,28.0,30.35,North,0,3.0,8.0,85,0.00,,,0.01,VWS V14.00,2013-02-08 14:25:00,
2013-02-08 08:30:00,32.0,28.0,30.36,North,0,4.0,7.0,85,0.00,,,0.01,VWS V14.00,2013-02-08 14:30:00,
2013-02-08 08:35:00,32.1,28.1,30.36,North,0,4.0,9.0,85,0.00,,,0.01,VWS V14.00,2013-02-08 14:35:00,
2013-02-08 08:40:00,32.1,28.1,30.36,NNW,338,4.0,7.0,85,0.00,,,0.01,VWS V14.00,2013-02-08 14:40:00,
2013-02-08 08:45:00,32.1,28.1,30.37,North,0,3.0,7.0,85,0.00,,,0.01,VWS V14.00,2013-02-08 14:45:00,
2013-02-08 08:50:00,32.2,28.2,30.37,North,0,4.0,9.0,85,0.00,,,0.01,VWS V14.00,2013-02-08 14:50:00,
2013-02-08 08:55:00,32.2,28.2,30.37,North,0,4.0,8.0,85,0.00,,,0.01,VWS V14.00,2013-02-08 14:55:00,
2013-02-08 09:00:00,32.2,28.2,30.37,North,0,4.0,9.0,85,0.00,,,0.01,VWS V14.00,2013-02-08 15:00:00,
2013-02-08 09:05:00,32.2,28.2,30.37,North,0,4.0,9.0,85,0.00,,,0.01,VWS V14.00,2013-02-08 15:05:00,
2013-02-08 09:10:00,32.2,28.2,30.37,North,0,4.0,9.0,85,0.00,,,0.01,VWS V14.00,2013-02-08 15:10:00,
2013-02-08 09:15:00,32.2,28.2,30.38,North,0,3.0,7.0,85,0.00,,,0.01,VWS V14.00,2013-02-08 15:15:00,
2013-02-08 09:20:00,32.3,28.0,30.38,North,0,5.0,8.0,84,0.00,,,0.01,VWS V14.00,2013-02-08 15:20:00,
2013-02-08 09:25:00,32.3,28.0,30.38,NNW,338,3.0,6.0,84,0.00,,,0.01,VWS V14.00,2013-02-08 15:25:00,
2013-02-08 09:30:00,32.4,28.1,30.38,NNW,338,4.0,10.0,84,0.00,,,0.01,VWS V14.00,2013-02-08 15:30:00,
2013-02-08 09:35:00,32.5,28.2,30.38,North,0,5.0,8.0,84,0.00,,,0.01,VWS V14.00,2013-02-08 15:35:00,
2013-02-08 09:40:00,32.6,28.3,30.38,NNW,338,4.0,7.0,84,0.00,,,0.01,VWS V14.00,2013-02-08 15:40:00,
2013-02-08 09:45:00,32.7,28.4,30.38,NNW,338,2.0,6.0,84,0.00,,,0.01,VWS V14.00,2013-02-08 15:45:00,
2013-02-08 09:50:00,32.8,28.2,30.39,North,0,3.0,6.0,83,0.00,,,0.01,VWS V14.00,2013-02-08 15:50:00,
2013-02-08 09:55:00,32.8,28.2,30.38,North,0,4.0,8.0,83,0.00,,,0.01,VWS V14.00,2013-02-08 15:55:00,
2013-02-08 10:00:00,32.8,28.2,30.39,NNE,22,4.0,8.0,83,0.00,,,0.01,VWS V14.00,2013-02-08 16:00:00,
2013-02-08 10:05:00,32.9,28.3,30.38,NNE,22,4.0,9.0,83,0.00,,,0.01,VWS V14.00,2013-02-08 16:05:00,
2013-02-08 10:10:00,33.0,28.4,30.38,North,0,4.0,9.0,83,0.00,,,0.01,VWS V14.00,2013-02-08 16:10:00,
2013-02-08 10:15:00,33.0,28.4,30.38,North,0,4.0,10.0,83,0.00,,,0.01,VWS V14.00,2013-02-08 16:15:00,
2013-02-08 10:20:00,33.1,28.5,30.38,North,0,3.0,8.0,83,0.00,,,0.01,VWS V14.00,2013-02-08 16:20:00,
2013-02-08 10:25:00,33.3,28.7,30.39,North,0,2.0,6.0,83,0.00,,,0.01,VWS V14.00,2013-02-08 16:25:00,
2013-02-08 10:30:00,33.4,28.8,30.38,NNE,22,3.0,7.0,83,0.00,,,0.01,VWS V14.00,2013-02-08 16:30:00,
2013-02-08 10:35:00,33.4,28.8,30.38,NE,45,6.0,9.0,83,0.00,,,0.01,VWS V14.00,2013-02-08 16:35:00,
2013-02-08 10:40:00,33.2,28.3,30.38,ENE,68,3.0,8.0,82,0.00,,,0.01,VWS V14.00,2013-02-08 16:40:00,
2013-02-08 10:45:00,33.2,28.3,30.38,NNE,22,6.0,11.0,82,0.00,,,0.01,VWS V14.00,2013-02-08 16:45:00,
2013-02-08 10:50:00,33.2,28.3,30.38,NE,45,4.0,10.0,82,0.00,,,0.01,VWS V14.00,2013-02-08 16:50:00,
2013-02-08 10:55:00,33.2,28.3,30.38,ENE,68,2.0,7.0,82,0.00,,,0.01,VWS V14.00,2013-02-08 16:55:00,
2013-02-08 11:00:00,33.2,28.3,30.38,NE,45,3.0,8.0,82,0.00,,,0.01,VWS V14.00,2013-02-08 17:00:00,
2013-02-08 11:05:00,33.4,29.1,30.38,NE,45,4.0,8.0,84,0.00,,,0.01,VWS V14.00,2013-02-08 17:05:00,
2013-02-08 11:10:00,33.7,28.8,30.38,ENE,68,5.0,8.0,82,0.00,,,0.01,VWS V14.00,2013-02-08 17:10:00,
2013-02-08 11:15:00,33.9,28.7,30.38,East,90,4.0,8.0,81,0.00,,,0.01,VWS V14.00,2013-02-08 17:15:00,
2013-02-08 11:20:00,34.2,28.7,30.38,ENE,68,7.0,13.0,80,0.00,,,0.01,VWS V14.00,2013-02-08 17:20:00,
2013-02-08 11:25:00,34.2,28.7,30.38,ENE,68,5.0,8.0,80,0.00,,,0.01,VWS V14.00,2013-02-08 17:25:00,
2013-02-08 11:30:00,34.4,29.2,30.38,East,90,2.0,6.0,81,0.00,,,0.01,VWS V14.00,2013-02-08 17:30:00,
2013-02-08 11:35:00,34.5,29.0,30.37,NNE,22,1.0,3.0,80,0.00,,,0.01,VWS V14.00,2013-02-08 17:35:00,
2013-02-08 11:40:00,34.8,29.9,30.37,NE,45,3.0,8.0,82,0.00,,,0.01,VWS V14.00,2013-02-08 17:40:00,
2013-02-08 11:45:00,35.2,29.7,30.37,East,90,4.0,9.0,80,0.00,,,0.01,VWS V14.00,2013-02-08 17:45:00,
2013-02-08 11:50:00,35.4,29.9,30.37,ESE,112,4.0,8.0,80,0.00,,,0.01,VWS V14.00,2013-02-08 17:50:00,
2013-02-08 11:55:00,35.6,29.7,30.36,East,90,4.0,8.0,79,0.00,,,0.01,VWS V14.00,2013-02-08 17:55:00,
2013-02-08 12:00:00,35.5,29.6,30.36,East,90,4.0,7.0,79,0.00,,,0.01,VWS V14.00,2013-02-08 18:00:00,
2013-02-08 12:05:00,35.6,29.7,30.36,NNE,22,2.0,5.0,79,0.00,,,0.01,VWS V14.00,2013-02-08 18:05:00,
2013-02-08 12:10:00,35.5,29.3,30.36,NNE,22,2.0,5.0,78,0.00,,,0.01,VWS V14.00,2013-02-08 18:10:00,
2013-02-08 12:15:00,35.7,29.5,30.36,NE,45,3.0,7.0,78,0.00,,,0.01,VWS V14.00,2013-02-08 18:15:00,
2013-02-08 12:20:00,35.6,28.8,30.36,ENE,68,4.0,9.0,76,0.00,,,0.01,VWS V14.00,2013-02-08 18:20:00,
2013-02-08 12:25:00,35.7,30.1,30.36,ENE,68,4.0,9.0,80,0.00,,,0.01,VWS V14.00,2013-02-08 18:25:00,
2013-02-08 12:30:00,36.3,30.1,30.36,East,90,3.0,9.0,78,0.00,,,0.01,VWS V14.00,2013-02-08 18:30:00,
2013-02-08 12:35:00,36.5,30.3,30.36,North,0,2.0,4.0,78,0.00,,,0.01,VWS V14.00,2013-02-08 18:35:00,
2013-02-08 12:40:00,36.4,29.9,30.36,NE,45,3.0,6.0,77,0.00,,,0.01,VWS V14.00,2013-02-08 18:40:00,
2013-02-08 12:45:00,36.2,29.0,30.36,NE,45,2.0,6.0,75,0.00,,,0.01,VWS V14.00,2013-02-08 18:45:00,
2013-02-08 12:50:00,36.4,30.2,30.36,NE,45,1.0,3.0,78,0.00,,,0.01,VWS V14.00,2013-02-08 18:50:00,
2013-02-08 12:55:00,37.0,30.8,30.36,NNE,22,2.0,6.0,78,0.00,,,0.01,VWS V14.00,2013-02-08 18:55:00,
2013-02-08 13:00:00,37.5,31.0,30.36,NE,45,2.0,9.0,77,0.00,,,0.01,VWS V14.00,2013-02-08 19:00:00,
2013-02-08 13:05:00,37.4,30.2,30.36,NE,45,3.0,7.0,75,0.00,,,0.01,VWS V14.00,2013-02-08 19:05:00,
2013-02-08 13:10:00,37.3,30.4,30.36,North,0,1.0,5.0,76,0.00,,,0.01,VWS V14.00,2013-02-08 19:10:00,
2013-02-08 13:15:00,37.4,30.2,30.35,North,0,4.0,7.0,75,0.00,,,0.01,VWS V14.00,2013-02-08 19:15:00,
2013-02-08 13:20:00,37.4,30.5,30.35,NNE,22,3.0,6.0,76,0.00,,,0.01,VWS V14.00,2013-02-08 19:20:00,
2013-02-08 13:25:00,37.7,30.8,30.36,North,0,3.0,7.0,76,0.00,,,0.01,VWS V14.00,2013-02-08 19:25:00,
2013-02-08 13:30:00,37.9,30.7,30.35,North,0,4.0,6.0,75,0.00,,,0.01,VWS V14.00,2013-02-08 19:30:00,
2013-02-08 13:35:00,37.8,30.6,30.36,NNW,338,3.0,8.0,75,0.00,,,0.01,VWS V14.00,2013-02-08 19:35:00,
2013-02-08 13:40:00,37.7,30.5,30.36,NNW,338,4.0,7.0,75,0.00,,,0.01,VWS V14.00,2013-02-08 19:40:00,
2013-02-08 13:45:00,37.7,30.2,30.36,NNE,22,3.0,6.0,74,0.00,,,0.01,VWS V14.00,2013-02-08 19:45:00,
2013-02-08 13:50:00,37.6,29.7,30.37,NNW,338,2.0,5.0,73,0.00,,,0.01,VWS V14.00,2013-02-08 19:50:00,
2013-02-08 13:55:00,37.5,29.6,30.38,North,0,1.0,3.0,73,0.00,,,0.01,VWS V14.00,2013-02-08 19:55:00,
2013-02-08 14:00:00,37.4,29.2,30.38,North,0,0.0,3.0,72,0.00,,,0.01,VWS V14.00,2013-02-08 20:00:00,
2013-02-08 14:05:00,37.4,29.5,30.39,North,0,0.0,1.0,73,0.00,,,0.01,VWS V14.00,2013-02-08 20:05:00,
2013-02-08 14:10:00,37.8,29.6,30.39,NNE,22,1.0,2.0,72,0.00,,,0.01,VWS V14.00,2013-02-08 20:10:00,
2013-02-08 14:15:00,37.6,29.4,30.38,SSW,202,0.0,2.0,72,0.00,,,0.01,VWS V14.00,2013-02-08 20:15:00,
2013-02-08 14:20:00,37.7,29.5,30.38,SW,225,0.0,1.0,72,0.00,,,0.01,VWS V14.00,2013-02-08 20:20:00,
2013-02-08 14:25:00,37.7,29.5,30.38,WSW,248,0.0,2.0,72,0.00,,,0.01,VWS V14.00,2013-02-08 20:25:00,
2013-02-08 14:30:00,38.2,30.3,30.37,WSW,248,1.0,5.0,73,0.00,,,0.01,VWS V14.00,2013-02-08 20:30:00,
2013-02-08 14:35:00,39.3,32.0,30.36,NNE,22,3.0,7.0,75,0.00,,,0.01,VWS V14.00,2013-02-08 20:35:00,
2013-02-08 14:40:00,39.9,31.3,30.35,NNE,22,4.0,8.0,71,0.00,,,0.01,VWS V14.00,2013-02-08 20:40:00,
2013-02-08 14:45:00,39.6,30.3,30.35,NNE,22,4.0,7.0,69,0.00,,,0.01,VWS V14.00,2013-02-08 20:45:00,
2013-02-08 14:50:00,39.0,30.1,30.34,NE,45,4.0,8.0,70,0.00,,,0.01,VWS V14.00,2013-02-08 20:50:00,
2013-02-08 14:55:00,38.7,30.1,30.34,NNE,22,3.0,8.0,71,0.00,,,0.01,VWS V14.00,2013-02-08 20:55:00,
2013-02-08 15:00:00,38.4,30.2,30.34,NE,45,4.0,10.0,72,0.00,,,0.01,VWS V14.00,2013-02-08 21:00:00,
2013-02-08 15:05:00,38.4,30.2,30.34,ENE,68,5.0,8.0,72,0.00,,,0.01,VWS V14.00,2013-02-08 21:05:00,
2013-02-08 15:10:00,38.2,30.3,30.34,NE,45,4.0,7.0,73,0.00,,,0.01,VWS V14.00,2013-02-08 21:10:00,
2013-02-08 15:15:00,37.9,30.0,30.34,ENE,68,4.0,8.0,73,0.00,,,0.01,VWS V14.00,2013-02-08 21:15:00,
2013-02-08 15:20:00,37.7,30.2,30.34,ENE,68,4.0,10.0,74,0.00,,,0.01,VWS V14.00,2013-02-08 21:20:00,
2013-02-08 15:25:00,37.5,29.3,30.33,East,90,5.0,9.0,72,0.00,,,0.01,VWS V14.00,2013-02-08 21:25:00,
2013-02-08 15:30:00,37.4,29.5,30.33,NE,45,5.0,7.0,73,0.00,,,0.01,VWS V14.00,2013-02-08 21:30:00,
2013-02-08 15:35:00,37.7,30.5,30.33,NE,45,4.0,11.0,75,0.00,,,0.01,VWS V14.00,2013-02-08 21:35:00,
2013-02-08 15:40:00,37.6,29.4,30.33,ENE,68,6.0,11.0,72,0.00,,,0.01,VWS V14.00,2013-02-08 21:40:00,
2013-02-08 15:45:00,37.3,29.5,30.33,ENE,68,4.0,10.0,73,0.00,,,0.01,VWS V14.00,2013-02-08 21:45:00,
2013-02-08 15:50:00,37.2,29.7,30.33,ENE,68,8.0,11.0,74,0.00,,,0.01,VWS V14.00,2013-02-08 21:50:00,
2013-02-08 15:55:00,37.1,29.6,30.32,ENE,68,5.0,11.0,74,0.00,,,0.01,VWS V14.00,2013-02-08 21:55:00,
2013-02-08 16:00:00,37.1,29.6,30.32,East,90,4.0,10.0,74,0.00,,,0.01,VWS V14.00,2013-02-08 22:00:00,
2013-02-08 16:05:00,37.4,30.2,30.32,East,90,4.0,14.0,75,0.00,,,0.01,VWS V14.00,2013-02-08 22:05:00,
2013-02-08 16:10:00,37.4,30.2,30.32,ENE,68,8.0,13.0,75,0.00,,,0.01,VWS V14.00,2013-02-08 22:10:00,
2013-02-08 16:15:00,37.4,30.2,30.32,East,90,6.0,12.0,75,0.00,,,0.01,VWS V14.00,2013-02-08 22:15:00,
2013-02-08 16:20:00,37.4,29.9,30.33,East,90,5.0,11.0,74,0.00,,,0.01,VWS V14.00,2013-02-08 22:20:00,
2013-02-08 16:25:00,37.1,29.6,30.33,ENE,68,8.0,11.0,74,0.00,,,0.01,VWS V14.00,2013-02-08 22:25:00,
2013-02-08 16:30:00,36.8,30.0,30.33,ENE,68,5.0,8.0,76,0.00,,,0.01,VWS V14.00,2013-02-08 22:30:00,
2013-02-08 16:35:00,36.7,29.5,30.33,East,90,4.0,7.0,75,0.00,,,0.01,VWS V14.00,2013-02-08 22:35:00,
2013-02-08 16:40:00,36.6,29.8,30.33,East,90,4.0,8.0,76,0.00,,,0.01,VWS V14.00,2013-02-08 22:40:00,
2013-02-08 16:45:00,36.2,29.0,30.33,ENE,68,6.0,10.0,75,0.00,,,0.01,VWS V14.00,2013-02-08 22:45:00,
2013-02-08 16:50:00,36.0,29.2,30.34,ENE,68,3.0,7.0,76,0.00,,,0.01,VWS V14.00,2013-02-08 22:50:00,
2013-02-08 16:55:00,35.8,29.3,30.34,ENE,68,3.0,7.0,77,0.00,,,0.01,VWS V14.00,2013-02-08 22:55:00,
2013-02-08 17:00:00,35.6,29.1,30.33,East,90,5.0,8.0,77,0.00,,,0.01,VWS V14.00,2013-02-08 23:00:00,
2013-02-08 17:05:00,35.3,29.1,30.33,ENE,68,4.0,9.0,78,0.00,,,0.01,VWS V14.00,2013-02-08 23:05:00,
2013-02-08 17:10:00,35.0,28.5,30.33,East,90,3.0,5.0,77,0.00,,,0.01,VWS V14.00,2013-02-08 23:10:00,
2013-02-08 17:15:00,34.9,28.8,30.33,ESE,112,2.0,5.0,78,0.00,,,0.01,VWS V14.00,2013-02-08 23:15:00,
2013-02-08 17:20:00,34.8,28.6,30.34,ESE,112,1.0,4.0,78,0.00,,,0.01,VWS V14.00,2013-02-08 23:20:00,
2013-02-08 17:25:00,34.8,28.6,30.34,ESE,112,4.0,7.0,78,0.00,,,0.01,VWS V14.00,2013-02-08 23:25:00,
2013-02-08 17:30:00,34.7,28.9,30.33,East,90,4.0,7.0,79,0.00,,,0.01,VWS V14.00,2013-02-08 23:30:00,
2013-02-08 17:35:00,34.6,28.8,30.32,ENE,68,5.0,9.0,79,0.00,,,0.01,VWS V14.00,2013-02-08 23:35:00,
2013-02-08 17:40:00,34.3,28.2,30.32,ENE,68,4.0,9.0,78,0.00,,,0.01,VWS V14.00,2013-02-08 23:40:00,
2013-02-08 17:45:00,34.2,28.1,30.32,ENE,68,4.0,8.0,78,0.00,,,0.01,VWS V14.00,2013-02-08 23:45:00,
2013-02-08 17:50:00,34.1,28.3,30.32,ENE,68,4.0,7.0,79,0.00,,,0.01,VWS V14.00,2013-02-08 23:50:00,
2013-02-08 17:55:00,34.0,28.5,30.32,East,90,4.0,8.0,80,0.00,,,0.01,VWS V14.00,2013-02-08 23:55:00,
2013-02-08 18:00:00,33.9,28.4,30.32,ENE,68,4.0,10.0,80,0.00,,,0.01,VWS V14.00,2013-02-09 00:00:00,
2013-02-08 18:05:00,33.7,27.9,30.32,East,90,4.0,9.0,79,0.00,,,0.01,VWS V14.00,2013-02-09 00:05:00,
2013-02-08 18:10:00,33.7,28.2,30.32,East,90,4.0,8.0,80,0.00,,,0.01,VWS V14.00,2013-02-09 00:10:00,
2013-02-08 18:15:00,33.6,28.1,30.32,East,90,5.0,10.0,80,0.00,,,0.01,VWS V14.00,2013-02-09 00:15:00,
2013-02-08 18:20:00,33.6,28.4,30.32,East,90,4.0,7.0,81,0.00,,,0.01,VWS V14.00,2013-02-09 00:20:00,
2013-02-08 18:25:00,33.5,28.3,30.32,East,90,5.0,8.0,81,0.00,,,0.01,VWS V14.00,2013-02-09 00:25:00,
2013-02-08 18:30:00,33.4,28.2,30.32,East,90,5.0,10.0,81,0.00,,,0.01,VWS V14.00,2013-02-09 00:30:00,
2013-02-08 18:35:00,33.3,28.1,30.32,East,90,6.0,10.0,81,0.00,,,0.01,VWS V14.00,2013-02-09 00:35:00,
2013-02-08 18:40:00,33.3,28.1,30.32,ENE,68,6.0,10.0,81,0.00,,,0.01,VWS V14.00,2013-02-09 00:40:00,
2013-02-08 18:45:00,33.3,28.1,30.32,East,90,6.0,9.0,81,0.00,,,0.01,VWS V14.00,2013-02-09 00:45:00,
2013-02-08 18:50:00,33.3,28.1,30.32,East,90,5.0,8.0,81,0.00,,,0.01,VWS V14.00,2013-02-09 00:50:00,
2013-02-08 18:55:00,33.2,28.0,30.32,East,90,5.0,9.0,81,0.00,,,0.01,VWS V14.00,2013-02-09 00:55:00,
2013-02-08 19:00:00,32.9,27.7,30.32,East,90,4.0,8.0,81,0.00,,,0.01,VWS V14.00,2013-02-09 01:00:00,
2013-02-08 19:05:00,32.6,27.4,30.32,East,90,5.0,9.0,81,0.00,,,0.01,VWS V14.00,2013-02-09 01:05:00,
2013-02-08 19:10:00,32.4,27.5,30.33,East,90,2.0,5.0,82,0.00,,,0.01,VWS V14.00,2013-02-09 01:10:00,
2013-02-08 19:15:00,32.2,27.3,30.33,East,90,2.0,4.0,82,0.00,,,0.01,VWS V14.00,2013-02-09 01:15:00,
2013-02-08 19:20:00,31.9,27.0,30.33,East,90,2.0,4.0,82,0.00,,,0.01,VWS V14.00,2013-02-09 01:20:00,
2013-02-08 19:25:00,31.6,27.0,30.33,East,90,2.0,4.0,83,0.00,,,0.01,VWS V14.00,2013-02-09 01:25:00,
2013-02-08 19:32:00,31.6,27.0,30.33,East,90,2.0,4.0,83,0.00,,,0.01,VWS V14.00,2013-02-09 01:32:00,
2013-02-08 19:35:00,30.9,26.6,30.33,East,93,3.0,7.0,84,0.00,,,0.01,VWS V14.00,2013-02-09 01:35:00,
2013-02-08 19:37:00,30.8,26.5,30.33,East,93,5.0,7.0,84,0.00,,,0.01,VWS V14.00,2013-02-09 01:37:00,
2013-02-08 19:40:00,30.6,26.4,30.33,East,88,3.0,7.0,84,0.00,,,0.01,VWS V14.00,2013-02-09 01:40:00,
2013-02-08 19:42:00,30.5,26.5,30.32,East,94,4.0,5.0,85,0.00,,,0.01,VWS V14.00,2013-02-09 01:42:00,
2013-02-08 19:45:00,30.4,26.4,30.32,East,87,3.0,5.0,85,0.00,,,0.01,VWS V14.00,2013-02-09 01:45:00,
2013-02-08 19:47:00,30.3,26.3,30.32,East,86,3.0,5.0,85,0.00,,,0.01,VWS V14.00,2013-02-09 01:47:00,
2013-02-08 19:50:00,30.2,26.5,30.32,East,91,3.0,7.0,86,0.00,,,0.01,VWS V14.00,2013-02-09 01:50:00,
2013-02-08 19:52:00,30.2,26.5,30.32,SE,124,2.0,9.0,86,0.00,,,0.01,VWS V14.00,2013-02-09 01:52:00,
2013-02-08 19:55:00,30.1,26.4,30.32,East,94,5.0,9.0,86,0.00,,,0.01,VWS V14.00,2013-02-09 01:55:00,
2013-02-08 19:57:00,30.1,26.4,30.32,East,90,5.0,8.0,86,0.00,,,0.01,VWS V14.00,2013-02-09 01:57:00,
2013-02-08 20:00:00,30.1,26.7,30.32,ENE,69,2.0,8.0,87,0.00,,,0.01,VWS V14.00,2013-02-09 02:00:00,
2013-02-08 20:02:00,30.1,26.7,30.32,East,92,4.0,8.0,87,0.00,,,0.01,VWS V14.00,2013-02-09 02:02:00,
2013-02-08 20:05:00,30.1,26.7,30.32,East,87,3.0,8.0,87,0.00,,,0.01,VWS V14.00,2013-02-09 02:05:00,
2013-02-08 20:07:00,30.1,26.7,30.32,East,89,5.0,7.0,87,0.00,,,0.01,VWS V14.00,2013-02-09 02:07:00,
2013-02-08 20:10:00,30.1,26.7,30.32,East,97,3.0,7.0,87,0.00,,,0.01,VWS V14.00,2013-02-09 02:10:00,
2013-02-08 20:12:00,30.0,26.6,30.32,ENE,71,3.0,7.0,87,0.00,,,0.01,VWS V14.00,2013-02-09 02:12:00,
2013-02-08 20:15:00,30.0,26.6,30.32,East,89,4.0,7.0,87,0.00,,,0.01,VWS V14.00,2013-02-09 02:15:00,
2013-02-08 20:17:00,30.0,26.6,30.32,East,85,3.0,4.0,87,0.00,,,0.01,VWS V14.00,2013-02-09 02:17:00,
2013-02-08 20:20:00,30.0,26.6,30.32,East,87,3.0,5.0,87,0.00,,,0.01,VWS V14.00,2013-02-09 02:20:00,
2013-02-08 20:22:00,30.0,26.6,30.32,East,81,3.0,5.0,87,0.00,,,0.01,VWS V14.00,2013-02-09 02:22:00,
2013-02-08 20:25:00,29.9,26.5,30.32,ENE,77,2.0,5.0,87,0.00,,,0.01,VWS V14.00,2013-02-09 02:25:00,
2013-02-08 20:27:00,29.9,26.5,30.32,ENE,76,5.0,6.0,87,0.00,,,0.01,VWS V14.00,2013-02-09 02:27:00,
2013-02-08 20:30:00,29.8,26.4,30.32,ENE,76,5.0,6.0,87,0.00,,,0.01,VWS V14.00,2013-02-09 02:30:00,
2013-02-08 20:32:00,29.8,26.4,30.32,ENE,73,3.0,6.0,87,0.00,,,0.01,VWS V14.00,2013-02-09 02:32:00,
2013-02-08 20:35:00,29.7,26.3,30.32,ENE,74,5.0,6.0,87,0.00,,,0.01,VWS V14.00,2013-02-09 02:35:00,
2013-02-08 20:37:00,29.7,26.3,30.32,ENE,76,6.0,7.0,87,0.00,,,0.01,VWS V14.00,2013-02-09 02:37:00,
2013-02-08 20:40:00,29.6,26.2,30.32,ENE,76,7.0,7.0,87,0.00,,,0.01,VWS V14.00,2013-02-09 02:40:00,
2013-02-08 20:42:00,29.6,26.2,30.32,ENE,78,7.0,7.0,87,0.00,,,0.01,VWS V14.00,2013-02-09 02:42:00,
2013-02-08 20:45:00,29.6,26.2,30.31,ENE,63,5.0,8.0,87,0.00,,,0.01,VWS V14.00,2013-02-09 02:45:00,
2013-02-08 20:47:00,29.5,26.1,30.31,East,87,5.0,8.0,87,0.00,,,0.01,VWS V14.00,2013-02-09 02:47:00,
2013-02-08 20:50:00,29.4,26.0,30.31,East,82,5.0,8.0,87,0.00,,,0.01,VWS V14.00,2013-02-09 02:50:00,
2013-02-08 20:52:00,29.4,26.3,30.30,East,82,7.0,8.0,88,0.00,,,0.01,VWS V14.00,2013-02-09 02:52:00,
2013-02-08 20:55:00,29.4,26.0,30.30,ENE,74,3.0,8.0,87,0.00,,,0.01,VWS V14.00,2013-02-09 02:55:00,
2013-02-08 20:57:00,29.4,26.3,30.30,ENE,76,5.0,8.0,88,0.00,,,0.01,VWS V14.00,2013-02-09 02:57:00,
2013-02-08 21:00:00,29.4,26.3,30.30,ENE,64,8.0,9.0,88,0.00,,,0.01,VWS V14.00,2013-02-09 03:00:00,
2013-02-08 21:02:00,29.5,26.4,30.30,ENE,72,10.0,10.0,88,0.00,,,0.01,VWS V14.00,2013-02-09 03:02:00,
2013-02-08 21:05:00,29.5,26.4,30.30,East,87,3.0,10.0,88,0.00,,,0.01,VWS V14.00,2013-02-09 03:05:00,
2013-02-08 21:07:00,29.5,26.4,30.30,ENE,70,7.0,9.0,88,0.00,,,0.01,VWS V14.00,2013-02-09 03:07:00,
2013-02-08 21:10:00,29.5,26.1,30.30,ENE,74,5.0,9.0,87,0.00,,,0.01,VWS V14.00,2013-02-09 03:10:00,
2013-02-08 21:12:00,29.5,26.1,30.30,East,85,4.0,6.0,87,0.00,,,0.01,VWS V14.00,2013-02-09 03:12:00,
2013-02-08 21:15:00,29.5,26.1,30.30,ESE,104,3.0,9.0,87,0.00,,,0.01,VWS V14.00,2013-02-09 03:15:00,
2013-02-08 21:17:00,29.5,26.1,30.30,East,88,5.0,7.0,87,0.00,,,0.01,VWS V14.00,2013-02-09 03:17:00,
2013-02-08 21:20:00,29.4,26.0,30.30,East,80,4.0,7.0,87,0.00,,,0.01,VWS V14.00,2013-02-09 03:20:00,
2013-02-08 21:22:00,29.4,26.0,30.30,East,97,4.0,7.0,87,0.00,,,0.01,VWS V14.00,2013-02-09 03:22:00,
2013-02-08 21:25:00,29.3,25.9,30.30,ENE,70,2.0,7.0,87,0.00,,,0.01,VWS V14.00,2013-02-09 03:25:00,
2013-02-08 21:27:00,29.2,25.8,30.30,East,93,5.0,6.0,87,0.00,,,0.01,VWS V14.00,2013-02-09 03:27:00,
2013-02-08 21:30:00,29.2,25.8,30.30,East,90,4.0,7.0,87,0.00,,,0.01,VWS V14.00,2013-02-09 03:30:00,
2013-02-08 21:32:00,29.1,25.7,30.30,East,92,2.0,7.0,87,0.00,,,0.01,VWS V14.00,2013-02-09 03:32:00,
2013-02-08 21:35:00,29.0,25.9,30.30,ENE,73,5.0,7.0,88,0.00,,,0.01,VWS V14.00,2013-02-09 03:35:00,
2013-02-08 21:37:00,29.1,26.0,30.30,East,89,4.0,8.0,88,0.00,,,0.01,VWS V14.00,2013-02-09 03:37:00,
2013-02-08 21:40:00,29.0,25.9,30.30,East,90,4.0,8.0,88,0.00,,,0.00,VWS V14.00,2013-02-09 03:40:00,
2013-02-08 21:45:00,28.9,25.8,30.31,East,90,4.0,7.0,88,0.00,,,0.00,VWS V14.00,2013-02-09 03:45:00,
2013-02-08 21:50:00,28.8,25.7,30.31,ESE,112,4.0,6.0,88,0.00,,,0.00,VWS V14.00,2013-02-09 03:50:00,
2013-02-08 21:55:00,28.7,25.6,30.30,ESE,112,4.0,6.0,88,0.00,,,0.00,VWS V14.00,2013-02-09 03:55:00,
2013-02-08 22:00:00,28.6,25.5,30.30,East,90,4.0,7.0,88,0.00,,,0.00,VWS V14.00,2013-02-09 04:00:00,
2013-02-08 22:05:00,28.5,25.4,30.30,ESE,112,3.0,5.0,88,0.00,,,0.00,VWS V14.00,2013-02-09 04:05:00,
2013-02-08 22:10:00,28.4,25.3,30.30,ESE,112,3.0,5.0,88,0.00,,,0.00,VWS V14.00,2013-02-09 04:10:00,
2013-02-08 22:15:00,28.1,25.0,30.30,ESE,112,3.0,5.0,88,0.00,,,0.00,VWS V14.00,2013-02-09 04:15:00,
2013-02-08 22:20:00,27.9,24.8,30.30,ESE,112,3.0,5.0,88,0.00,,,0.00,VWS V14.00,2013-02-09 04:20:00,
2013-02-08 22:25:00,27.9,25.1,30.30,ESE,112,2.0,4.0,89,0.00,,,0.00,VWS V14.00,2013-02-09 04:25:00,
2013-02-08 22:30:00,28.0,25.5,30.30,East,90,3.0,5.0,90,0.00,,,0.00,VWS V14.00,2013-02-09 04:30:00,
2013-02-08 22:35:00,27.8,25.0,30.30,East,90,3.0,7.0,89,0.00,,,0.00,VWS V14.00,2013-02-09 04:35:00,
2013-02-08 22:40:00,27.6,24.8,30.30,East,90,4.0,7.0,89,0.00,,,0.00,VWS V14.00,2013-02-09 04:40:00,
2013-02-08 22:45:00,27.6,24.8,30.30,East,90,4.0,7.0,89,0.00,,,0.00,VWS V14.00,2013-02-09 04:45:00,
2013-02-08 22:50:00,27.6,25.1,30.30,East,90,5.0,9.0,90,0.00,,,0.00,VWS V14.00,2013-02-09 04:50:00,
2013-02-08 22:55:00,27.6,25.1,30.31,East,90,5.0,8.0,90,0.00,,,0.00,VWS V14.00,2013-02-09 04:55:00,
2013-02-08 23:00:00,27.7,25.2,30.31,East,90,6.0,9.0,90,0.00,,,0.00,VWS V14.00,2013-02-09 05:00:00,
2013-02-08 23:05:00,27.8,25.2,30.31,East,90,5.0,8.0,90,0.00,,,0.00,VWS V14.00,2013-02-09 05:05:00,
2013-02-08 23:10:00,28.0,25.5,30.30,East,90,4.0,8.0,90,0.00,,,0.00,VWS V14.00,2013-02-09 05:10:00,
2013-02-08 23:15:00,28.1,25.5,30.30,East,90,4.0,8.0,90,0.00,,,0.00,VWS V14.00,2013-02-09 05:15:00,
2013-02-08 23:20:00,28.1,25.5,30.30,East,90,4.0,8.0,90,0.00,,,0.00,VWS V14.00,2013-02-09 05:20:00,
2013-02-08 23:25:00,28.1,25.3,30.30,East,90,4.0,7.0,89,0.00,,,0.00,VWS V14.00,2013-02-09 05:25:00,
2013-02-08 23:30:00,28.1,25.5,30.30,East,90,6.0,8.0,90,0.00,,,0.00,VWS V14.00,2013-02-09 05:30:00,
2013-02-08 23:35:00,28.1,25.5,30.30,East,90,5.0,9.0,90,0.00,,,0.00,VWS V14.00,2013-02-09 05:35:00,
2013-02-08 23:40:00,28.1,25.5,30.30,East,90,4.0,8.0,90,0.00,,,0.00,VWS V14.00,2013-02-09 05:40:00,
2013-02-08 23:45:00,28.2,25.6,30.30,East,90,4.0,7.0,90,0.00,,,0.00,VWS V14.00,2013-02-09 05:45:00,
2013-02-08 23:50:00,28.1,25.5,30.30,East,90,3.0,7.0,90,0.00,,,0.00,VWS V14.00,2013-02-09 05:50:00,
2013-02-08 23:55:00,28.1,25.5,30.30,East,90,4.0,7.0,90,0.00,,,0.00,VWS V14.00,2013-02-09 05:55:00,